Detalii statie FIRST FARMS FAUREI [00001992]

Toti senzorii

Date Temperatura solului [C]Precipitatii [mm]Voltaj baterie [mV]Leaf Wetness [Min]HC Air temperature [C]HC Relative humidity [%]Punctul de roua [C]
medieminmaxsumaultimatimpmedieminmaxmediemediemin
2020-06-02 06:00:00 15.3 15.2 15.5 0 6756 11.66 10.87 12.11 86.44 9.3 8.5
2020-06-02 07:00:00 14.9 14.8 15.2 0 6806 10.88 10.68 11.11 88.25 8.9 8.6
2020-06-02 08:00:00 14.7 14.6 14.9 0.2 6884 10.4 10.25 10.75 97.21 9.8 8.6
2020-06-02 09:00:00 14.5 14.5 14.7 0.4 7020 10.83 10.63 10.94 99.81 10.6 10.4
2020-06-02 10:00:00 14.3 14.3 14.5 1.2 7080 10.63 10.23 10.83 99.63 10.4 9.9
2020-06-02 11:00:00 14.2 14.1 14.4 2 7176 10.15 10 10.33 99.62 10 9.7
2020-06-02 12:00:00 14.2 14.1 14.3 1.6 7196 10.09 9.86 10.25 100 10 9.8
2020-06-02 13:00:00 14.1 13.9 14.3 0.4 7196 11.01 10.11 11.76 100 10.9 10.1
2020-06-02 14:00:00 14.5 14.2 14.8 0 7196 12.71 11.55 13.63 89.48 10.8 10.3
2020-06-02 15:00:00 15.1 14.7 15.5 0 7196 13.83 13.3 14.41 76.72 9.6 9.2
2020-06-02 16:00:00 15.8 15.4 16.1 0 7196 15.04 14.38 15.81 70.01 9.4 7.6
2020-06-02 17:00:00 16.4 16.1 16.9 0 7166 15.8 15.08 16.33 64.35 8.9 7.8
2020-06-02 18:00:00 16.9 16.7 17.2 0 7186 15.83 15.14 16.44 61.9 8.3 7.5
2020-06-02 19:00:00 17.2 17.1 17.4 0 7040 15.66 15.05 16.09 63.13 8.5 7.8
2020-06-02 20:00:00 17.2 17.1 17.4 0 7186 15.06 14.8 15.48 69.06 9.2 8.7
2020-06-02 21:00:00 16.9 16.7 17.1 0 6854 13.84 12.89 14.83 83.45 10.8 9.2
2020-06-02 22:00:00 16.5 16.3 16.7 0 6844 11.62 10.55 12.65 92.79 10.3 10
2020-06-02 23:00:00 16.1 15.8 16.5 0 6806 10.03 9.58 10.39 100 10 9.5
2020-06-03 00:00:00 15.6 15.4 15.9 0 6806 8.98 8.55 9.84 100 8.9 8.5
2020-06-03 01:00:00 15.1 15 15.4 0 6786 8.81 8.43 9.42 100 8.7 8.4
2020-06-03 02:00:00 14.6 14.5 14.9 0 6776 7.83 6.8 9.38 100 7.8 6.8
2020-06-03 03:00:00 14.3 14.1 14.5 0 6756 7.47 7.19 7.99 100 7.4 7.1
2020-06-03 04:00:00 13.8 13.6 14.1 0 6766 6.91 6.3 7.38 100 6.8 6.3
2020-06-03 05:00:00 13.5 13.3 13.7 0 6756 6.15 5.82 6.41 100 6.1 5.8
2020-06-03 06:00:00 13.1 13 13.3 0 6738 5.96 5.43 6.46 100 5.9 5.4
2020-06-03 07:00:00 12.8 12.6 13 0 6834 7.13 6.17 8.22 100 7 6.1
2020-06-03 08:00:00 12.5 12.5 12.7 0 6992 9.29 8.18 10.31 100 9.2 8.1
2020-06-03 09:00:00 12.6 12.5 12.8 0 7196 12.1 10.46 13.83 98.08 11.7 10.4
2020-06-03 10:00:00 13.1 12.8 13.6 0 7196 15.65 14.05 17.03 71.21 10.2 8.2
2020-06-03 11:00:00 14 13.6 14.5 0 7196 17.81 17.11 18.81 48.72 6.6 5
2020-06-03 12:00:00 15.2 14.6 15.8 0 7196 19.3 18.7 19.87 42.68 6.1 4.6
2020-06-03 13:00:00 16.5 15.9 17.1 0 7186 20.03 19.29 20.73 39.48 5.5 4.9
2020-06-03 14:00:00 17.5 17.1 17.8 0 7206 19.73 19.21 20.44 39.67 5.3 3.9
2020-06-03 15:00:00 17.9 17.8 18.1 0 7196 20.4 19.63 22.62 39.55 5.9 5.1
2020-06-03 16:00:00 18.1 17.9 18.3 0 7186 20.85 20.31 21.71 38.95 6.1 5.3
2020-06-03 17:00:00 18.2 18.2 18.4 0 7176 21.86 20.95 22.74 36.26 6 4.8
2020-06-03 18:00:00 18.5 18.3 18.7 0 7080 20.93 20.09 21.82 40.09 6.6 5.1
2020-06-03 19:00:00 18.6 18.5 18.7 0 7176 20.23 19.73 20.72 43.35 7.1 6.6
2020-06-03 20:00:00 18.5 18.3 18.7 0 7176 19.77 18.39 20.74 44.25 7 6.3
2020-06-03 21:00:00 18.1 18 18.3 0 6874 16.06 14.53 17.97 60.61 8.2 8.1
2020-06-03 22:00:00 17.6 17.3 17.8 0 6826 12.91 11.89 14.16 81.24 9.6 8.5
2020-06-03 23:00:00 17.1 16.8 17.4 0 6806 11.93 10.85 12.94 89.86 10.1 9.5
2020-06-04 00:00:00 16.5 16.3 16.9 0 6806 11.07 10.08 12.14 96.19 10.3 9.9
2020-06-04 01:00:00 16 15.7 16.3 0 6776 10.13 9.14 11.39 99.47 9.9 9.1
2020-06-04 02:00:00 15.5 15.4 15.7 0 6786 9.9 8.94 11.06 99.89 9.8 8.9
2020-06-04 03:00:00 15.1 14.9 15.4 0 6766 9.01 8.47 9.87 100 8.9 8.4
2020-06-04 04:00:00 14.8 14.6 15 0 6766 9.38 8.29 10.1 100 9.3 8.2
2020-06-04 05:00:00 14.3 14.2 14.5 0 6756 8.36 7.67 8.92 100 8.3 7.6